createdAt,value
2022-12-06T00:00:32.211Z,68.28
2022-12-06T00:03:39.731Z,68.29
2022-12-06T00:06:48.073Z,68.19
2022-12-06T00:09:54.190Z,67.92
2022-12-06T00:12:59.750Z,67.92
2022-12-06T00:16:07.585Z,67.89
2022-12-06T00:19:16.474Z,67.87
2022-12-06T00:22:22.034Z,67.85
2022-12-06T00:25:27.875Z,67.81
2022-12-06T00:28:33.738Z,67.78
2022-12-06T00:31:39.353Z,67.74
2022-12-06T00:34:45.038Z,67.68
2022-12-06T00:37:50.548Z,67.33
2022-12-06T00:41:03.771Z,67.38
2022-12-06T00:44:09.731Z,67.26
2022-12-06T00:47:15.326Z,67.15
2022-12-06T00:50:20.980Z,67.24
2022-12-06T00:53:26.934Z,67.21
2022-12-06T00:56:32.791Z,67.54
2022-12-06T00:59:38.340Z,67.50
2022-12-06T01:02:43.979Z,67.41
2022-12-06T01:05:52.060Z,67.47
2022-12-06T01:08:58.676Z,67.66
2022-12-06T01:12:04.365Z,67.76
2022-12-06T01:15:11.897Z,67.81
2022-12-06T01:18:17.678Z,67.56
2022-12-06T01:21:24.391Z,67.55
2022-12-06T01:24:30.005Z,67.64
2022-12-06T01:27:35.449Z,67.63
2022-12-06T01:30:43.433Z,67.63
2022-12-06T01:33:49.726Z,67.58
2022-12-06T01:36:55.275Z,67.52
2022-12-06T01:40:01.065Z,67.52
2022-12-06T01:43:06.987Z,67.38
2022-12-06T01:46:29.977Z,67.34
2022-12-06T01:49:37.639Z,67.40
2022-12-06T01:52:51.008Z,67.44
2022-12-06T01:55:57.139Z,67.69
2022-12-06T01:59:03.572Z,67.99
2022-12-06T02:02:10.191Z,67.89
2022-12-06T02:05:16.843Z,67.96
2022-12-06T02:08:23.263Z,67.92
2022-12-06T02:11:33.640Z,68.01
2022-12-06T02:14:41.758Z,67.96
2022-12-06T02:17:47.966Z,67.99
2022-12-06T02:21:01.299Z,68.07
2022-12-06T02:24:38.660Z,67.83
2022-12-06T02:28:20.828Z,67.85
2022-12-06T02:31:30.237Z,68.08
2022-12-06T02:34:45.415Z,68.33
2022-12-06T02:37:55.063Z,68.57
2022-12-06T02:41:04.767Z,68.61
2022-12-06T02:44:20.189Z,68.83
2022-12-06T02:47:31.780Z,69.03
2022-12-06T02:50:40.969Z,69.03
2022-12-06T02:53:49.733Z,68.95
2022-12-06T02:56:55.257Z,68.74
2022-12-06T03:00:01.001Z,68.90
2022-12-06T03:03:33.314Z,68.59
2022-12-06T03:06:58.982Z,68.80
2022-12-06T03:10:23.433Z,68.81
2022-12-06T03:13:35.787Z,68.70
2022-12-06T03:16:48.483Z,68.54
2022-12-06T03:20:03.882Z,68.49
2022-12-06T03:23:12.724Z,68.54
2022-12-06T03:26:24.971Z,68.37
2022-12-06T03:29:35.512Z,68.59
2022-12-06T03:32:46.203Z,68.66
2022-12-06T03:35:54.318Z,68.48
2022-12-06T03:39:02.892Z,68.38
2022-12-06T03:42:09.710Z,68.40
2022-12-06T03:45:16.466Z,68.68
2022-12-06T03:48:27.539Z,68.97
2022-12-06T03:51:36.137Z,69.18
2022-12-06T03:54:43.410Z,69.27
2022-12-06T03:57:49.035Z,69.29
2022-12-06T04:00:54.791Z,69.32
2022-12-06T04:04:00.875Z,69.61
2022-12-06T04:07:06.469Z,70.07
2022-12-06T04:10:13.308Z,70.50
2022-12-06T04:13:19.937Z,70.55
2022-12-06T04:16:43.120Z,70.46
2022-12-06T04:19:52.050Z,70.52
2022-12-06T04:23:07.007Z,70.59
2022-12-06T04:26:14.921Z,70.64
2022-12-06T04:29:38.187Z,70.39
2022-12-06T04:33:01.222Z,69.77
2022-12-06T04:36:25.228Z,69.95
2022-12-06T04:39:30.950Z,69.95
2022-12-06T04:42:54.143Z,69.86
2022-12-06T04:45:59.624Z,69.52
2022-12-06T04:49:05.179Z,69.21
2022-12-06T04:52:11.916Z,69.34
2022-12-06T04:55:18.067Z,69.26
2022-12-06T04:58:23.625Z,69.22
2022-12-06T05:01:29.149Z,69.14
2022-12-06T05:04:35.243Z,68.94
2022-12-06T05:07:40.742Z,68.87
2022-12-06T05:10:49.771Z,68.63
2022-12-06T05:13:55.372Z,68.73
2022-12-06T05:17:00.843Z,68.59
2022-12-06T05:20:07.990Z,68.49
2022-12-06T05:23:13.658Z,68.39
2022-12-06T05:26:20.744Z,68.54
2022-12-06T05:29:26.223Z,68.58
2022-12-06T05:32:31.740Z,68.41
2022-12-06T05:35:39.895Z,68.50
2022-12-06T05:38:51.130Z,68.73
2022-12-06T05:41:57.195Z,68.85
2022-12-06T05:45:02.743Z,69.08
2022-12-06T05:48:09.563Z,69.32
2022-12-06T05:51:15.345Z,69.41
2022-12-06T05:54:21.235Z,69.51
2022-12-06T05:57:26.783Z,69.48
2022-12-06T06:00:32.643Z,69.45
2022-12-06T06:03:42.448Z,69.58
2022-12-06T06:06:51.625Z,69.56
2022-12-06T06:09:57.260Z,69.52
2022-12-06T06:13:04.464Z,69.91
2022-12-06T06:16:10.262Z,70.04
2022-12-06T06:19:16.276Z,70.14
2022-12-06T06:22:23.261Z,69.96
2022-12-06T06:25:28.915Z,70.14
2022-12-06T06:28:34.465Z,70.29
2022-12-06T06:31:40.048Z,70.46
2022-12-06T06:34:45.590Z,70.66
2022-12-06T06:37:51.112Z,70.56
2022-12-06T06:40:56.660Z,70.39
2022-12-06T06:44:02.210Z,70.31
2022-12-06T06:47:07.964Z,69.89
2022-12-06T06:50:14.618Z,70.05
2022-12-06T06:53:20.604Z,69.96
2022-12-06T06:56:26.148Z,70.01
2022-12-06T06:59:31.698Z,70.01
2022-12-06T07:02:39.668Z,69.85
2022-12-06T07:05:45.332Z,69.96
2022-12-06T07:08:51.007Z,70.03
2022-12-06T07:11:57.683Z,70.06
2022-12-06T07:15:03.125Z,69.67
2022-12-06T07:18:08.784Z,69.49
2022-12-06T07:21:16.437Z,69.37
2022-12-06T07:24:22.133Z,69.37
2022-12-06T07:27:27.682Z,69.50
2022-12-06T07:30:33.304Z,69.77
2022-12-06T07:33:39.445Z,69.85
2022-12-06T07:36:44.946Z,69.81
2022-12-06T07:39:50.378Z,69.68
2022-12-06T07:43:13.353Z,69.65
2022-12-06T07:46:18.844Z,69.41
2022-12-06T07:49:24.797Z,69.52
2022-12-06T07:52:33.937Z,69.52
2022-12-06T07:55:39.466Z,69.14
2022-12-06T07:58:45.398Z,69.15
2022-12-06T08:01:51.336Z,68.99
2022-12-06T08:04:58.534Z,69.17
2022-12-06T08:08:04.139Z,69.35
2022-12-06T08:11:10.770Z,69.79
2022-12-06T08:14:16.959Z,69.73
2022-12-06T08:17:22.429Z,70.11
2022-12-06T08:20:27.931Z,70.38
2022-12-06T08:23:34.651Z,70.37
2022-12-06T08:26:40.354Z,70.40
2022-12-06T08:29:46.319Z,70.19
2022-12-06T08:32:51.759Z,70.04
2022-12-06T08:35:57.315Z,70.33
2022-12-06T08:39:02.916Z,70.31
2022-12-06T08:42:08.620Z,70.24
2022-12-06T08:45:14.204Z,70.28
2022-12-06T08:48:19.719Z,70.02
2022-12-06T08:51:25.574Z,70.02
2022-12-06T08:54:31.434Z,70.09
2022-12-06T08:57:36.973Z,69.64
2022-12-06T09:00:42.427Z,69.68
2022-12-06T09:03:48.163Z,69.77
2022-12-06T09:06:53.935Z,69.94
2022-12-06T09:09:59.897Z,69.88
2022-12-06T09:13:04.188Z,69.79
2022-12-06T09:16:15.794Z,69.59
2022-12-06T09:19:21.835Z,69.45
2022-12-06T09:22:27.520Z,69.49
2022-12-06T09:25:33.069Z,69.43
2022-12-06T09:28:41.074Z,69.23
2022-12-06T09:31:46.811Z,69.07
2022-12-06T09:34:52.862Z,69.07
2022-12-06T09:37:59.402Z,69.21
2022-12-06T09:41:12.852Z,68.93
2022-12-06T09:44:32.319Z,69.08
2022-12-06T09:47:53.836Z,69.30
2022-12-06T09:51:14.871Z,69.09
2022-12-06T09:54:33.935Z,69.04
2022-12-06T09:57:46.592Z,69.09
2022-12-06T10:01:01.256Z,69.02
2022-12-06T10:04:43.032Z,68.95
2022-12-06T10:07:55.954Z,68.84
2022-12-06T10:11:09.921Z,68.83
2022-12-06T10:14:31.646Z,68.70
2022-12-06T10:17:52.262Z,68.67
2022-12-06T10:21:10.800Z,68.61
2022-12-06T10:24:29.668Z,68.68
2022-12-06T10:27:40.687Z,68.73
2022-12-06T10:30:54.642Z,68.71
2022-12-06T10:34:06.052Z,68.67
2022-12-06T10:37:23.610Z,68.45
2022-12-06T10:40:38.169Z,68.42
2022-12-06T10:43:53.550Z,68.67
2022-12-06T10:47:04.868Z,68.79
2022-12-06T10:50:24.001Z,68.77
2022-12-06T10:53:35.083Z,68.87
2022-12-06T10:56:43.136Z,68.95
2022-12-06T10:59:55.183Z,69.16
2022-12-06T11:03:12.311Z,69.28
2022-12-06T11:06:27.031Z,69.25
2022-12-06T11:09:39.896Z,69.02
2022-12-06T11:12:46.671Z,68.86
2022-12-06T11:15:59.410Z,68.66
2022-12-06T11:19:21.833Z,68.76
2022-12-06T11:22:37.562Z,69.09
2022-12-06T11:26:00.175Z,68.98
2022-12-06T11:29:11.249Z,68.83
2022-12-06T11:32:19.361Z,68.65
2022-12-06T11:35:27.782Z,68.59
2022-12-06T11:38:34.754Z,68.54
2022-12-06T11:41:40.419Z,68.57
2022-12-06T11:45:01.370Z,68.45
2022-12-06T11:48:18.199Z,68.36
2022-12-06T11:51:25.741Z,68.22
2022-12-06T11:54:35.167Z,68.22
2022-12-06T11:57:46.254Z,68.15
2022-12-06T12:01:04.271Z,68.21
2022-12-06T12:04:27.867Z,68.14
2022-12-06T12:07:35.095Z,68.31
2022-12-06T12:10:44.392Z,68.53
2022-12-06T12:13:55.884Z,68.93
2022-12-06T12:17:04.808Z,68.54
2022-12-06T12:20:23.321Z,68.40
2022-12-06T12:23:33.999Z,68.49
2022-12-06T12:26:42.597Z,68.65
2022-12-06T12:29:48.309Z,68.76
2022-12-06T12:33:09.591Z,68.74
2022-12-06T12:36:23.057Z,68.62
2022-12-06T12:39:42.331Z,69.03
2022-12-06T12:42:48.951Z,69.49
2022-12-06T12:46:20.827Z,69.14
2022-12-06T12:49:31.362Z,68.90
2022-12-06T12:52:39.955Z,68.96
2022-12-06T12:55:46.706Z,68.91
2022-12-06T12:58:55.326Z,68.76
2022-12-06T13:02:06.766Z,68.73
2022-12-06T13:05:35.481Z,68.56
2022-12-06T13:08:42.627Z,68.66
2022-12-06T13:11:54.075Z,68.62
2022-12-06T13:15:05.193Z,68.42
2022-12-06T13:18:15.251Z,68.35
2022-12-06T13:21:24.348Z,68.45
2022-12-06T13:24:32.586Z,68.61
2022-12-06T13:27:41.661Z,68.58
2022-12-06T13:30:50.397Z,68.59
2022-12-06T13:34:01.631Z,68.71
2022-12-06T13:37:27.248Z,68.82
2022-12-06T13:40:55.947Z,68.95
2022-12-06T13:44:01.594Z,69.38
2022-12-06T13:50:56.165Z,69.68
2022-12-06T13:54:37.609Z,69.92
2022-12-06T13:57:43.362Z,69.77
2022-12-06T14:00:53.861Z,69.66
2022-12-06T14:04:01.316Z,69.87
2022-12-06T14:10:15.643Z,70.07
2022-12-06T14:13:22.880Z,70.42
2022-12-06T14:16:32.619Z,69.91
2022-12-06T14:19:45.574Z,69.71
2022-12-06T14:22:51.372Z,69.22
2022-12-06T14:26:14.016Z,69.23
2022-12-06T14:29:24.828Z,69.41
2022-12-06T14:32:39.082Z,69.03
2022-12-06T14:35:52.470Z,68.87
2022-12-06T14:39:02.499Z,69.15
2022-12-06T14:42:37.753Z,69.13
2022-12-06T14:45:45.190Z,68.94
2022-12-06T14:49:08.523Z,69.05
2022-12-06T14:52:23.208Z,69.01
2022-12-06T14:55:31.007Z,68.89
2022-12-06T14:58:38.016Z,68.70
2022-12-06T15:01:54.351Z,68.74
2022-12-06T15:05:00.687Z,68.73
2022-12-06T15:08:18.298Z,68.43
2022-12-06T15:12:00.330Z,68.51
2022-12-06T15:15:07.081Z,68.60
2022-12-06T15:18:25.559Z,68.61
2022-12-06T15:21:31.195Z,68.38
2022-12-06T15:24:36.780Z,68.40
2022-12-06T15:27:42.348Z,68.49
2022-12-06T15:30:48.311Z,68.28
2022-12-06T15:33:54.125Z,68.28
2022-12-06T15:37:36.850Z,68.35
2022-12-06T15:40:26.830Z,68.26
2022-12-06T15:43:34.901Z,68.20
2022-12-06T15:46:40.988Z,68.11
2022-12-06T15:49:46.751Z,67.95
2022-12-06T15:52:52.282Z,67.94
2022-12-06T15:55:58.467Z,68.01
2022-12-06T15:59:04.004Z,67.90
2022-12-06T16:02:15.903Z,67.81
2022-12-06T16:05:21.716Z,67.81
2022-12-06T16:08:27.375Z,67.89
2022-12-06T16:11:33.070Z,67.73
2022-12-06T16:14:38.626Z,67.65
2022-12-06T16:17:44.275Z,67.56
2022-12-06T16:20:50.507Z,67.65
2022-12-06T16:24:13.073Z,67.68
2022-12-06T16:27:19.970Z,67.64
2022-12-06T16:30:35.272Z,67.58
2022-12-06T16:33:41.715Z,67.53
2022-12-06T16:37:02.030Z,67.49
2022-12-06T16:40:19.928Z,67.71
2022-12-06T16:43:25.711Z,67.30
2022-12-06T16:46:33.829Z,67.46
2022-12-06T16:49:47.007Z,67.35
2022-12-06T16:52:55.209Z,67.19
2022-12-06T16:56:00.806Z,67.21
2022-12-06T16:59:06.874Z,67.20
2022-12-06T17:02:24.510Z,67.25
2022-12-06T17:05:30.517Z,67.22
2022-12-06T17:08:36.264Z,67.21
2022-12-06T17:12:00.199Z,67.31
2022-12-06T17:15:06.583Z,67.33
2022-12-06T17:18:10.679Z,67.43
2022-12-06T17:21:17.375Z,67.67
2022-12-06T17:24:25.668Z,67.60
2022-12-06T17:27:31.321Z,67.57
2022-12-06T17:30:36.974Z,67.63
2022-12-06T17:33:42.706Z,67.71
2022-12-06T17:36:48.648Z,67.73
2022-12-06T17:39:54.230Z,67.73
2022-12-06T17:43:02.519Z,67.70
2022-12-06T17:46:11.430Z,67.50
2022-12-06T17:49:19.361Z,67.63
2022-12-06T17:52:25.341Z,67.77
2022-12-06T17:55:31.089Z,67.97
2022-12-06T17:58:37.043Z,68.16
2022-12-06T18:02:14.851Z,68.27
2022-12-06T18:05:10.477Z,67.92
2022-12-06T18:08:16.210Z,68.19
2022-12-06T18:11:23.876Z,68.43
2022-12-06T18:14:29.889Z,68.62
2022-12-06T18:17:35.540Z,68.64
2022-12-06T18:20:43.286Z,68.07
2022-12-06T18:24:19.818Z,68.15
2022-12-06T18:27:16.356Z,67.71
2022-12-06T18:30:22.315Z,67.99
2022-12-06T18:33:31.114Z,67.89
2022-12-06T18:36:36.896Z,68.06
2022-12-06T18:39:42.441Z,67.91
2022-12-06T18:42:48.032Z,67.89
2022-12-06T18:46:00.357Z,67.69
2022-12-06T18:49:06.188Z,68.04
2022-12-06T18:52:12.834Z,67.90
2022-12-06T18:55:18.861Z,67.57
2022-12-06T18:58:24.551Z,67.62
2022-12-06T19:01:33.674Z,67.57
2022-12-06T19:04:39.298Z,67.29
2022-12-06T19:07:45.854Z,67.05
2022-12-06T19:10:51.479Z,67.44
2022-12-06T19:13:58.423Z,67.16
2022-12-06T19:17:04.271Z,67.33
2022-12-06T19:20:11.235Z,67.17
2022-12-06T19:23:17.095Z,66.68
2022-12-06T19:26:23.425Z,67.32
2022-12-06T19:29:27.919Z,66.73
2022-12-06T19:32:34.264Z,67.01
2022-12-06T19:35:38.308Z,67.05
2022-12-06T19:38:44.577Z,66.74
2022-12-06T19:42:04.869Z,66.91
2022-12-06T19:45:12.551Z,66.80
2022-12-06T19:48:18.222Z,66.74
2022-12-06T19:51:24.408Z,66.68
2022-12-06T19:54:32.986Z,66.55
2022-12-06T19:57:40.422Z,66.44
2022-12-06T20:00:50.311Z,66.17
2022-12-06T20:03:56.511Z,66.41
2022-12-06T20:07:02.488Z,66.73
2022-12-06T20:10:10.148Z,66.75
2022-12-06T20:13:15.687Z,66.76
2022-12-06T20:16:21.412Z,66.94
2022-12-06T20:19:27.541Z,66.75
2022-12-06T20:22:33.210Z,67.01
2022-12-06T20:25:38.792Z,67.11
2022-12-06T20:28:45.221Z,67.24
2022-12-06T20:31:52.101Z,67.29
2022-12-06T20:34:57.823Z,67.15
2022-12-06T20:38:03.497Z,66.69
2022-12-06T20:41:14.473Z,66.83
2022-12-06T20:44:21.355Z,66.85
2022-12-06T20:47:27.072Z,66.96
2022-12-06T20:50:32.657Z,66.79
2022-12-06T20:53:38.415Z,66.96
2022-12-06T20:56:44.338Z,66.88
2022-12-06T20:59:50.023Z,66.93
2022-12-06T21:02:55.735Z,66.81
2022-12-06T21:06:02.573Z,66.87
2022-12-06T21:09:08.145Z,66.94
2022-12-06T21:12:13.721Z,66.80
2022-12-06T21:15:19.615Z,66.70
2022-12-06T21:18:28.572Z,67.10
2022-12-06T21:21:37.674Z,67.06
2022-12-06T21:24:43.327Z,67.33
2022-12-06T21:27:48.923Z,67.45
2022-12-06T21:30:55.596Z,67.35
2022-12-06T21:34:01.927Z,67.59
2022-12-06T21:37:06.036Z,67.69
2022-12-06T21:40:13.700Z,67.75
2022-12-06T21:43:19.265Z,67.41
2022-12-06T21:46:26.929Z,67.46
2022-12-06T21:49:32.555Z,67.53
2022-12-06T21:52:38.290Z,67.55
2022-12-06T21:55:43.944Z,67.39
2022-12-06T21:58:50.422Z,67.45
2022-12-06T22:01:56.014Z,67.55
2022-12-06T22:05:01.671Z,68.30
2022-12-06T22:08:08.075Z,67.79
2022-12-06T22:11:16.060Z,66.97
2022-12-06T22:14:22.051Z,67.00
2022-12-06T22:17:28.014Z,66.88
2022-12-06T22:20:33.612Z,66.96
2022-12-06T22:23:39.627Z,66.98
2022-12-06T22:26:45.195Z,66.84
2022-12-06T22:29:50.820Z,66.73
2022-12-06T22:32:56.370Z,66.61
2022-12-06T22:36:03.561Z,66.39
2022-12-06T22:39:09.340Z,66.41
2022-12-06T22:42:14.864Z,66.54
2022-12-06T22:45:20.539Z,65.95
2022-12-06T22:48:26.302Z,66.08
2022-12-06T22:51:33.301Z,66.22
2022-12-06T22:54:39.210Z,65.99
2022-12-06T22:57:44.864Z,65.96
2022-12-06T23:00:50.518Z,65.83
2022-12-06T23:03:57.104Z,65.69
2022-12-06T23:07:03.304Z,65.58
2022-12-06T23:10:11.660Z,65.84
2022-12-06T23:13:17.214Z,65.65
2022-12-06T23:16:24.787Z,65.55
2022-12-06T23:19:30.566Z,65.50
2022-12-06T23:22:36.128Z,66.03
2022-12-06T23:25:41.770Z,66.15
2022-12-06T23:28:48.132Z,65.82
2022-12-06T23:31:52.316Z,65.66
2022-12-06T23:34:57.948Z,65.82
2022-12-06T23:38:03.479Z,65.88
2022-12-06T23:41:12.275Z,65.79
2022-12-06T23:44:18.039Z,65.57
2022-12-06T23:47:23.630Z,65.39
2022-12-06T23:50:29.235Z,65.27
2022-12-06T23:53:35.913Z,65.09
2022-12-06T23:56:42.997Z,65.04
2022-12-06T23:59:48.650Z,65.16
